Mercury — 3FFC7 — position and weather

sailwx.info

Track history (hours):
 
Tides and Currents Weather Stations Pressure Air Temp Water Temp Dewpoint Dewpoint Depression Visibility Wind Speed Wind Dir Waves Ship Positions

Mercury

Operator: Royal Caribbean Cruises Ltd

Last reported at 2017-Nov-11 13:17 UTC. Time now 2017-Nov-21 08:19 UTC.
Position N 01°22' E 103°17'.
Warning: this ship's position is 9 days out of date.

Length 199 m; draft 8.9 m.

Type: Cargo ship. MMSI: 371862000.

Date/timePositionNaut miles runAvg speedWind from/ knotsBaromVisibWave heightAir tempDewpointWater temp
2017-Nov-11 13:17N 01°22' E 103°17'619.1
2017-Nov-11 12:59N 01°18' E 103°21'817.6
2017-Nov-11 12:30N 01°14' E 103°28'714.6
2017-Nov-11 12:01N 01°12' E 103°35'4 8.8
2017-Nov-11 11:30N 01°12' E 103°40'4 8.2
2017-Nov-11 11:01N 01°15' E 103°43'3 7.0
2017-Nov-11 10:30N 01°17' E 103°45'0 0.4
2017-Nov-11 09:58N 01°17' E 103°45'0 0.0
2017-Nov-11 09:25N 01°17' E 103°45'0 0.0
2017-Nov-11 08:58N 01°17' E 103°45'0 0.0
2017-Nov-11 08:22N 01°17' E 103°45'0 0.0
2017-Nov-11 07:58N 01°17' E 103°45'0 0.0
2017-Nov-11 07:28N 01°17' E 103°45'0 0.0
2017-Nov-11 06:58N 01°17' E 103°45'0 0.0
2017-Nov-11 06:28N 01°17' E 103°45'0 0.0
2017-Nov-11 05:58N 01°17' E 103°45'0 0.0
2017-Nov-11 05:28N 01°17' E 103°45'0 0.0
2017-Nov-11 04:58N 01°17' E 103°45'0 0.0
2017-Nov-11 04:28N 01°17' E 103°45'0 0.0
2017-Nov-11 03:58N 01°17' E 103°45'0 0.0
2017-Nov-11 03:28N 01°17' E 103°45'0 0.0
2017-Nov-11 02:58N 01°17' E 103°45'0 0.0
2017-Nov-11 02:28N 01°17' E 103°45'0 0.0
2017-Nov-11 01:58N 01°17' E 103°45'0 0.0
2017-Nov-11 01:28N 01°17' E 103°45'0 0.0
2017-Nov-11 00:58N 01°17' E 103°45'0 0.0
2017-Nov-11 00:28N 01°17' E 103°45'0 0.0
2017-Nov-10 23:58N 01°17' E 103°45'0 0.0
2017-Nov-10 23:28N 01°17' E 103°45'0 0.0
2017-Nov-10 22:58N 01°17' E 103°45'0 0.0
2017-Nov-10 22:25N 01°17' E 103°45'0 0.0
2017-Nov-10 21:58N 01°17' E 103°45'0 0.0
2017-Nov-10 21:28N 01°17' E 103°45'0 0.0
2017-Nov-10 20:58N 01°17' E 103°45'0 0.0
2017-Nov-10 20:28N 01°17' E 103°45'0 0.0
2017-Nov-10 19:58N 01°17' E 103°45'0 0.0
2017-Nov-10 19:28N 01°17' E 103°45'0 0.0
2017-Nov-10 18:58N 01°17' E 103°45'0 0.0
2017-Nov-10 18:28N 01°17' E 103°45'0 0.0
2017-Nov-10 17:58N 01°17' E 103°45'0 0.0
2017-Nov-10 17:28N 01°17' E 103°45'0 0.0
2017-Nov-10 16:58N 01°17' E 103°45'0 0.0
2017-Nov-10 16:28N 01°17' E 103°45'0 0.0
2017-Nov-10 15:58N 01°17' E 103°45'0 0.0
2017-Nov-10 15:28N 01°17' E 103°45'0 0.0
2017-Nov-10 14:58N 01°17' E 103°45'0 0.0
2017-Nov-10 14:28N 01°17' E 103°45'0 0.0
2017-Nov-10 13:58N 01°17' E 103°45'0 0.0
2017-Nov-10 13:19N 01°17' E 103°45'0 0.0
2017-Nov-10 12:58N 01°17' E 103°45'0 0.0
2017-Nov-10 12:28N 01°17' E 103°45'0 0.1
2017-Nov-10 12:00N 01°17' E 103°45'1 2.7
2017-Nov-10 11:30N 01°16' E 103°46'5 9.1
2017-Nov-10 11:00N 01°13' E 103°49'4 8.5
2017-Nov-10 10:30N 01°14' E 103°53'1 2.6
2017-Nov-10 10:00N 01°14' E 103°54'3 6.1
2017-Nov-10 09:30N 01°15' E 103°57'4 8.1
2017-Nov-10 09:00N 01°16' E 104°01'4 8.1
2017-Nov-10 08:28N 01°17' E 104°05'  
Track history (hours):
 
Tides and Currents Weather Stations Pressure Air Temp Water Temp Dewpoint Dewpoint Depression Visibility Wind Speed Wind Dir Waves Ship Positions

Mercury

Operator: Royal Caribbean Cruises Ltd

Last reported at 2017-Nov-11 13:17 UTC. Time now 2017-Nov-21 08:19 UTC.
Position N 01°22' E 103°17'.
Warning: this ship's position is 9 days out of date.

Length 199 m; draft 8.9 m.

Type: Cargo ship. MMSI: 371862000.

Date/timePositionNaut miles runAvg speedWind from/ knotsBaromVisibWave heightAir tempDewpointWater temp
2017-Nov-11 13:17N 01°22' E 103°17'619.1
2017-Nov-11 12:59N 01°18' E 103°21'817.6
2017-Nov-11 12:30N 01°14' E 103°28'714.6
2017-Nov-11 12:01N 01°12' E 103°35'4 8.8
2017-Nov-11 11:30N 01°12' E 103°40'4 8.2
2017-Nov-11 11:01N 01°15' E 103°43'3 7.0
2017-Nov-11 10:30N 01°17' E 103°45'0 0.4
2017-Nov-11 09:58N 01°17' E 103°45'0 0.0
2017-Nov-11 09:25N 01°17' E 103°45'0 0.0
2017-Nov-11 08:58N 01°17' E 103°45'0 0.0
2017-Nov-11 08:22N 01°17' E 103°45'0 0.0
2017-Nov-11 07:58N 01°17' E 103°45'0 0.0
2017-Nov-11 07:28N 01°17' E 103°45'0 0.0
2017-Nov-11 06:58N 01°17' E 103°45'0 0.0
2017-Nov-11 06:28N 01°17' E 103°45'0 0.0
2017-Nov-11 05:58N 01°17' E 103°45'0 0.0
2017-Nov-11 05:28N 01°17' E 103°45'0 0.0
2017-Nov-11 04:58N 01°17' E 103°45'0 0.0
2017-Nov-11 04:28N 01°17' E 103°45'0 0.0
2017-Nov-11 03:58N 01°17' E 103°45'0 0.0
2017-Nov-11 03:28N 01°17' E 103°45'0 0.0
2017-Nov-11 02:58N 01°17' E 103°45'0 0.0
2017-Nov-11 02:28N 01°17' E 103°45'0 0.0
2017-Nov-11 01:58N 01°17' E 103°45'0 0.0
2017-Nov-11 01:28N 01°17' E 103°45'0 0.0
2017-Nov-11 00:58N 01°17' E 103°45'0 0.0
2017-Nov-11 00:28N 01°17' E 103°45'0 0.0
2017-Nov-10 23:58N 01°17' E 103°45'0 0.0
2017-Nov-10 23:28N 01°17' E 103°45'0 0.0
2017-Nov-10 22:58N 01°17' E 103°45'0 0.0
2017-Nov-10 22:25N 01°17' E 103°45'0 0.0
2017-Nov-10 21:58N 01°17' E 103°45'0 0.0
2017-Nov-10 21:28N 01°17' E 103°45'0 0.0
2017-Nov-10 20:58N 01°17' E 103°45'0 0.0
2017-Nov-10 20:28N 01°17' E 103°45'0 0.0
2017-Nov-10 19:58N 01°17' E 103°45'0 0.0
2017-Nov-10 19:28N 01°17' E 103°45'0 0.0
2017-Nov-10 18:58N 01°17' E 103°45'0 0.0
2017-Nov-10 18:28N 01°17' E 103°45'0 0.0
2017-Nov-10 17:58N 01°17' E 103°45'0 0.0
2017-Nov-10 17:28N 01°17' E 103°45'0 0.0
2017-Nov-10 16:58N 01°17' E 103°45'0 0.0
2017-Nov-10 16:28N 01°17' E 103°45'0 0.0
2017-Nov-10 15:58N 01°17' E 103°45'0 0.0
2017-Nov-10 15:28N 01°17' E 103°45'0 0.0
2017-Nov-10 14:58N 01°17' E 103°45'0 0.0
2017-Nov-10 14:28N 01°17' E 103°45'0 0.0
2017-Nov-10 13:58N 01°17' E 103°45'0 0.0
2017-Nov-10 13:19N 01°17' E 103°45'0 0.0
2017-Nov-10 12:58N 01°17' E 103°45'0 0.0
2017-Nov-10 12:28N 01°17' E 103°45'0 0.1
2017-Nov-10 12:00N 01°17' E 103°45'1 2.7
2017-Nov-10 11:30N 01°16' E 103°46'5 9.1
2017-Nov-10 11:00N 01°13' E 103°49'4 8.5
2017-Nov-10 10:30N 01°14' E 103°53'1 2.6
2017-Nov-10 10:00N 01°14' E 103°54'3 6.1
2017-Nov-10 09:30N 01°15' E 103°57'4 8.1
2017-Nov-10 09:00N 01°16' E 104°01'4 8.1
2017-Nov-10 08:28N 01°17' E 104°05'  

Dump ship's entire track history